GB-0295 weather

Ranston Airstrip
England, United Kingdom

Public forecast

Using degrees Celsius for public forecast. Weather courtesy of forecast.io.

Closest aviation weather report (METAR) to Ranston Airstrip

Closest report is Bournemouth Airport, 15.3 nm (28.4 km) ESE. Retrieved 2020/08/05 16:20 UTC (21 minutes ago):

EGHH 051620Z 20010KT 9999 FEW016 BKN026 20/15 Q1013

Closest aviation forecast (TAF) to Ranston Airstrip

Forecast is more than 12 hours old.

Closest forecast is Bournemouth Airport, 15.3 nm (28.4 km) ESE. Retrieved 2020/02/21 21:06 UTC (6 months ago):

TAF EGHH 210200Z 2021/2123 CNL